Weather reports worldwide

Advertisment
Madrid, Spain (8222): temperature & dewpoint: 23.05.2020 16:00:00 - 29.05.2020 16:00:00 (CEST)Madrid, Spain (8222): wind speed & gusts: 23.05.2020 16:00:00 - 29.05.2020 16:00:00 (CEST)Madrid, Spain (8222): wind direction: 23.05.2020 16:00:00 - 29.05.2020 16:00:00 (CEST)Madrid, Spain (8222): precipitation: 23.05.2020 16:00:00 - 29.05.2020 16:00:00 (CEST)
Date & Time tt [°C] td [°C] ff [km/h] ff [kn] fx [km/h] fx [kn] dd rr [mm]
29.05.2020 16:00:00 - - - - - - - -
29.05.2020 15:00:00 30,4 10,9 2 1 16 9 E 0,0
29.05.2020 14:00:00 27,8 10,5 4 2 15 8 ESE -
29.05.2020 13:00:00 26,2 10,0 5 3 13 7 E 0,0
29.05.2020 12:00:00 24,3 8,7 3 2 15 8 E 0,0
29.05.2020 11:00:00 21,9 8,1 4 2 15 8 SSE 0,0
29.05.2020 10:00:00 20,8 8,1 3 2 24 13 ESE 0,0
29.05.2020 09:00:00 18,1 7,2 5 3 12 7 E 0,0
29.05.2020 08:00:00 16,1 7,1 1 1 9 5 SE -
29.05.2020 07:00:00 16,7 6,2 7 4 14 7 E 0,0
29.05.2020 06:00:00 17,0 6,8 5 3 11 6 E 0,0
29.05.2020 05:00:00 17,3 7,4 5 3 12 6 E 0,0
29.05.2020 04:00:00 18,5 7,3 8 4 15 8 E 0,0
29.05.2020 03:00:00 19,1 8,7 4 2 16 8 ESE 0,0
29.05.2020 02:00:00 20,0 8,7 5 3 18 10 SE -
29.05.2020 01:00:00 21,1 8,4 9 5 18 10 SSE 0,0
29.05.2020 00:00:00 21,6 7,8 6 4 18 10 SSE 0,0
28.05.2020 23:00:00 22,9 7,5 9 5 21 12 SSE 0,0
28.05.2020 22:00:00 23,6 7,3 10 6 22 12 SSE 0,0
28.05.2020 21:00:00 24,8 7,9 10 5 24 13 S 0,0
28.05.2020 20:00:00 26,6 6,6 5 3 16 9 SE -
28.05.2020 19:00:00 27,1 6,5 1 1 16 9 NE 0,0
28.05.2020 18:00:00 27,9 6,6 5 3 20 11 SSW 0,0
28.05.2020 17:00:00 28,7 6,7 10 6 23 13 ESE 0,0
28.05.2020 16:00:00 28,7 7,3 9 5 21 12 E 0,0
28.05.2020 15:00:00 28,0 8,3 8 5 26 14 ESE 0,0
28.05.2020 14:00:00 26,3 8,3 6 4 24 13 E -
28.05.2020 13:00:00 24,9 8,0 6 4 21 11 E 0,0
28.05.2020 12:00:00 23,4 8,3 7 4 26 14 ESE 0,0
28.05.2020 11:00:00 21,7 7,5 10 5 23 12 ESE 0,0
28.05.2020 10:00:00 20,1 6,8 8 5 19 10 E 0,0
28.05.2020 09:00:00 18,5 6,7 6 4 19 10 E 0,0
28.05.2020 08:00:00 17,2 6,1 4 2 13 7 ENE -
28.05.2020 07:00:00 16,9 5,2 6 3 14 8 E 0,0
28.05.2020 06:00:00 17,5 5,8 5 3 16 9 ESE 0,0
28.05.2020 05:00:00 17,8 6,7 6 4 18 10 SE 0,0
28.05.2020 04:00:00 17,9 7,6 5 3 14 8 SSE 0,0
28.05.2020 03:00:00 19,4 7,5 7 4 19 10 SSE 0,0
28.05.2020 02:00:00 20,3 7,7 7 4 16 9 SE -
28.05.2020 01:00:00 20,9 7,2 7 4 24 13 SE 0,0
28.05.2020 00:00:00 21,8 6,5 10 6 23 12 SSE 0,0
27.05.2020 23:00:00 23,0 6,7 11 6 24 13 SSE 0,0
27.05.2020 22:00:00 24,3 7,0 11 6 27 14 SSE 0,0
27.05.2020 21:00:00 25,6 6,8 14 7 34 18 S 0,0
27.05.2020 20:00:00 27,4 7,8 13 7 31 17 S -
27.05.2020 19:00:00 28,5 7,7 7 4 21 12 SE 0,0
27.05.2020 18:00:00 28,7 7,3 2 1 23 12 ESE 0,0
27.05.2020 17:00:00 29,3 7,8 12 7 26 14 ESE 0,0
27.05.2020 16:00:00 29,4 7,9 9 5 32 17 SE 0,0
27.05.2020 15:00:00 28,8 8,5 9 5 27 14 SE 0,0
27.05.2020 14:00:00 27,0 7,5 10 5 29 15 E -
27.05.2020 13:00:00 25,4 7,5 14 7 28 15 E 0,0
27.05.2020 12:00:00 25,1 8,2 9 5 25 14 SE 0,0
27.05.2020 11:00:00 23,0 8,7 9 5 25 13 E 0,0
27.05.2020 10:00:00 21,0 9,6 8 4 22 12 E 0,0
27.05.2020 09:00:00 18,6 9,9 6 4 16 9 ESE 0,0
27.05.2020 08:00:00 17,4 11,2 6 4 14 8 E -
27.05.2020 07:00:00 17,1 11,4 7 4 16 9 NE 0,0
27.05.2020 06:00:00 17,6 11,6 7 4 17 9 NE 0,0
27.05.2020 05:00:00 17,9 11,7 7 4 14 8 NE 0,0
27.05.2020 04:00:00 18,4 11,5 6 3 14 8 NE 0,0
27.05.2020 03:00:00 18,5 11,3 5 3 13 7 NE 0,0
27.05.2020 02:00:00 19,1 11,2 6 3 18 10 NE -
27.05.2020 01:00:00 20,1 11,3 6 3 21 12 ENE 0,0
27.05.2020 00:00:00 20,9 11,8 7 4 24 13 E 0,0
26.05.2020 23:00:00 21,7 11,7 13 7 29 15 NE 0,0
26.05.2020 22:00:00 22,3 11,4 10 5 24 13 NE 0,0
26.05.2020 21:00:00 22,5 11,9 9 5 23 13 NE 0,0
26.05.2020 20:00:00 23,7 12,0 10 6 23 12 NE -
26.05.2020 19:00:00 24,6 11,5 10 6 27 15 NE 0,0
26.05.2020 18:00:00 25,2 12,1 10 5 25 13 ENE 0,0
26.05.2020 17:00:00 24,5 11,8 4 2 18 10 ESE 0,0
26.05.2020 16:00:00 23,4 11,1 10 5 21 12 SSE 0,0
26.05.2020 15:00:00 24,5 11,8 3 2 25 13 SSE 0,0
26.05.2020 14:00:00 22,9 12,2 6 4 16 9 SSW -
26.05.2020 13:00:00 22,2 11,9 4 2 17 9 S 0,0
26.05.2020 12:00:00 21,3 12,2 7 4 15 8 SSE 0,0
26.05.2020 11:00:00 19,6 14,0 6 3 20 11 ESE 0,0
26.05.2020 10:00:00 18,6 13,2 9 5 24 13 ENE 0,0
26.05.2020 09:00:00 18,2 12,9 15 8 27 14 NE 0,0
26.05.2020 08:00:00 17,2 12,7 12 7 26 14 NE -
26.05.2020 07:00:00 16,7 12,5 11 6 23 12 NE 0,2
26.05.2020 06:00:00 16,9 12,6 11 6 23 13 NE 0,0
26.05.2020 05:00:00 16,9 12,6 7 4 24 13 NE 0,0
26.05.2020 04:00:00 16,9 12,2 12 6 26 14 NE 0,0
26.05.2020 03:00:00 17,2 11,5 10 6 29 16 NE 0,0
26.05.2020 02:00:00 17,2 11,0 11 6 24 13 NE -
26.05.2020 01:00:00 17,6 10,7 11 6 24 13 NE 0,0
26.05.2020 00:00:00 18,3 11,4 9 5 18 10 NE 0,0
25.05.2020 23:00:00 18,9 12,0 5 3 31 17 E 0,0
25.05.2020 22:00:00 18,6 11,4 13 7 42 23 ENE 0,0
25.05.2020 21:00:00 21,0 14,9 5 3 13 7 ESE 0,0
25.05.2020 20:00:00 20,7 14,6 6 3 31 17 SSE -
25.05.2020 19:00:00 20,7 16,5 16 8 32 17 SE 7,8
25.05.2020 18:00:00 22,0 14,4 14 8 40 21 E 0,2
25.05.2020 17:00:00 27,1 12,7 10 6 33 18 N 0,0
25.05.2020 16:00:00 29,7 13,5 5 3 24 13 SW 0,0
25.05.2020 15:00:00 29,4 13,6 10 6 25 13 S 0,0
25.05.2020 14:00:00 28,2 13,3 11 6 21 12 SE -
25.05.2020 13:00:00 27,4 13,7 7 4 19 10 ESE 0,0
25.05.2020 12:00:00 25,4 13,3 4 2 17 9 SE 0,0
25.05.2020 11:00:00 23,5 13,4 6 4 14 8 SSE 0,0
25.05.2020 10:00:00 21,5 13,4 6 4 14 7 SE 0,0
25.05.2020 09:00:00 19,8 13,5 4 2 10 5 ESE 0,0
25.05.2020 08:00:00 18,9 13,3 4 2 10 6 E -
25.05.2020 07:00:00 18,8 12,8 2 1 13 7 SSE 0,0
25.05.2020 06:00:00 19,1 12,1 4 2 14 8 SSE 0,0
25.05.2020 05:00:00 19,8 12,6 8 5 18 10 ESE 0,0
25.05.2020 04:00:00 20,2 12,2 6 3 17 9 E 0,0
25.05.2020 03:00:00 20,8 11,2 6 4 11 6 E 0,0
25.05.2020 02:00:00 21,4 9,6 5 3 19 10 SSE -
25.05.2020 01:00:00 22,9 9,3 9 5 22 12 S 0,0
25.05.2020 00:00:00 24,1 10,0 9 5 23 12 S 0,0
24.05.2020 23:00:00 24,6 10,5 0 0 7 4 E 0,0
24.05.2020 22:00:00 25,5 10,9 5 3 9 5 NNW 0,0
24.05.2020 21:00:00 25,9 11,3 5 3 13 7 NW 0,0
24.05.2020 20:00:00 27,4 11,4 6 4 13 7 W -
24.05.2020 19:00:00 29,1 12,1 6 3 17 9 W 0,0
24.05.2020 18:00:00 28,9 11,9 2 1 12 7 E 0,0
24.05.2020 17:00:00 28,5 12,8 3 1 11 6 W 0,0
24.05.2020 16:00:00 29,2 12,6 4 2 16 8 SE 0,0
24.05.2020 15:00:00 28,2 12,1 5 3 19 11 ESE 0,0
24.05.2020 14:00:00 27,3 12,1 6 3 26 14 E -
24.05.2020 13:00:00 25,8 11,2 9 5 24 13 SE 0,0
24.05.2020 12:00:00 24,0 11,0 11 6 21 11 ESE 0,0
24.05.2020 11:00:00 22,3 10,1 8 4 22 12 E 0,0
24.05.2020 10:00:00 20,9 10,1 3 1 18 10 E 0,0
24.05.2020 09:00:00 18,6 9,9 8 4 20 11 E 0,0
24.05.2020 08:00:00 17,1 10,0 11 6 23 13 ENE -
24.05.2020 07:00:00 17,0 9,7 14 8 28 15 NE 0,0
24.05.2020 06:00:00 17,4 10,1 13 7 29 16 NE 0,0
24.05.2020 05:00:00 17,9 10,0 16 9 31 17 NE 0,0
24.05.2020 04:00:00 18,1 10,2 13 7 33 18 NE 0,0
24.05.2020 03:00:00 19,2 10,5 12 7 38 21 NE 0,0
24.05.2020 02:00:00 20,6 10,7 19 10 41 22 NE -
24.05.2020 01:00:00 22,1 10,9 18 10 41 22 NE 0,0
24.05.2020 00:00:00 24,0 12,3 18 10 42 23 NE 0,0
23.05.2020 23:00:00 25,0 11,6 13 7 30 16 NE 0,0
23.05.2020 22:00:00 26,3 12,0 10 6 21 11 NNE 0,0
23.05.2020 21:00:00 26,5 10,6 4 2 11 6 WNW 0,0
23.05.2020 20:00:00 29,5 10,1 5 3 15 8 NNW -
23.05.2020 19:00:00 30,3 9,8 4 2 14 7 NNW 0,0
23.05.2020 18:00:00 31,3 9,5 4 2 20 11 WNW 0,0
23.05.2020 17:00:00 32,0 9,5 4 2 21 11 SW 0,0
23.05.2020 16:00:00 31,7 9,8 8 5 21 12 W 0,0

tt = temperature
td = dewpoint
ff = wind speed
fx = gusts
dd = wind direction
rr = precipitation

Next stations